Time,TemperatureF,DewpointF,PressureIn,WindDirection,WindDirectionDegrees,WindSpeedMPH,WindSpeedGustMPH,Humidity,HourlyPrecipIn,Conditions,Clouds,dailyrainin,SolarRadiationWatts/m^2,SoftwareType,DateUTC
2013-04-15 00:02:00,58.0,55.0,-100.00,NNW,331,2.0,4.0,91,0.00,,,0.08,0.000000,,2013-04-15 04:02:00,
2013-04-15 00:23:00,58.0,55.0,-100.00,NNW,331,2.0,4.0,91,0.00,,,0.08,0.000000,,2013-04-15 04:23:00,
2013-04-15 00:33:00,58.0,55.0,-100.00,NNW,331,2.0,4.0,91,0.00,,,0.08,0.000000,,2013-04-15 04:33:00,
2013-04-15 00:43:00,58.0,55.0,-100.00,NNW,331,2.0,4.0,91,0.00,,,0.08,0.000000,,2013-04-15 04:43:00,
2013-04-15 00:53:00,58.0,55.0,-100.00,NNW,331,2.0,4.0,91,0.00,,,0.08,0.000000,,2013-04-15 04:53:00,
2013-04-15 01:02:00,58.0,56.0,-100.00,NNE,15,1.0,4.0,93,0.00,,,0.08,0.000000,,2013-04-15 05:02:00,
2013-04-15 01:33:00,58.0,56.0,-100.00,NNE,15,1.0,4.0,93,0.00,,,0.08,0.000000,,2013-04-15 05:33:00,
2013-04-15 01:43:00,58.0,56.0,-100.00,NNE,15,1.0,4.0,93,0.00,,,0.08,0.000000,,2013-04-15 05:43:00,
2013-04-15 01:53:00,58.0,56.0,-100.00,NNE,15,1.0,4.0,93,0.00,,,0.08,0.000000,,2013-04-15 05:53:00,
2013-04-15 02:02:00,57.0,56.0,-100.00,NW,307,0.0,1.0,95,0.00,,,0.08,0.000000,,2013-04-15 06:02:00,
2013-04-15 02:23:00,57.0,56.0,-100.00,NW,307,0.0,1.0,95,0.00,,,0.08,0.000000,,2013-04-15 06:23:00,
2013-04-15 02:34:00,57.0,56.0,-100.00,NW,307,0.0,1.0,95,0.00,,,0.08,0.000000,,2013-04-15 06:34:00,
2013-04-15 02:43:00,57.0,56.0,-100.00,NW,307,0.0,1.0,95,0.00,,,0.08,0.000000,,2013-04-15 06:43:00,
2013-04-15 02:53:00,57.0,56.0,-100.00,NW,307,0.0,1.0,95,0.00,,,0.08,0.000000,,2013-04-15 06:53:00,
2013-04-15 03:02:00,57.0,56.0,-100.00,North,357,1.0,4.0,97,0.00,,,0.08,0.000000,,2013-04-15 07:02:00,
2013-04-15 03:42:00,57.0,56.0,-100.00,North,357,1.0,4.0,97,0.00,,,0.08,0.000000,,2013-04-15 07:42:00,
2013-04-15 03:43:00,57.0,56.0,-100.00,North,357,1.0,4.0,97,0.00,,,0.08,0.000000,,2013-04-15 07:43:00,
2013-04-15 03:54:00,57.0,56.0,-100.00,North,357,1.0,4.0,97,0.00,,,0.08,0.000000,,2013-04-15 07:54:00,
2013-04-15 04:02:00,57.0,56.0,-100.00,NE,44,2.0,4.0,98,0.00,,,0.08,0.000000,,2013-04-15 08:02:00,
2013-04-15 04:34:00,57.0,56.0,-100.00,NE,44,2.0,4.0,98,0.00,,,0.08,0.000000,,2013-04-15 08:34:00,
2013-04-15 04:43:00,57.0,56.0,-100.00,NE,44,2.0,4.0,98,0.00,,,0.08,0.000000,,2013-04-15 08:43:00,
2013-04-15 04:52:00,57.0,56.0,-100.00,NE,44,2.0,4.0,98,0.00,,,0.08,0.000000,,2013-04-15 08:52:00,
2013-04-15 05:02:00,58.0,57.0,-100.00,SW,219,0.0,4.0,98,0.00,,,0.08,0.000000,,2013-04-15 09:02:00,
2013-04-15 05:23:00,58.0,57.0,-100.00,SW,219,0.0,4.0,98,0.00,,,0.08,0.000000,,2013-04-15 09:23:00,
2013-04-15 05:33:00,58.0,57.0,-100.00,SW,219,0.0,4.0,98,0.00,,,0.08,0.000000,,2013-04-15 09:33:00,
2013-04-15 05:43:00,58.0,57.0,-100.00,SW,219,0.0,4.0,98,0.00,,,0.08,0.000000,,2013-04-15 09:43:00,
2013-04-15 05:53:00,58.0,57.0,-100.00,SW,219,0.0,4.0,98,0.00,,,0.08,0.000000,,2013-04-15 09:53:00,
2013-04-15 06:02:00,58.0,57.0,-100.00,NNE,19,1.0,3.0,98,0.00,,,0.08,0.000000,,2013-04-15 10:02:00,
2013-04-15 06:33:00,58.0,57.0,-100.00,NNE,19,1.0,3.0,98,0.00,,,0.08,0.000000,,2013-04-15 10:33:00,
2013-04-15 06:42:00,58.0,57.0,-100.00,NNE,19,1.0,3.0,98,0.00,,,0.08,0.000000,,2013-04-15 10:42:00,
2013-04-15 06:53:00,58.0,57.0,-100.00,NNE,19,1.0,3.0,98,0.00,,,0.08,0.000000,,2013-04-15 10:53:00,
2013-04-15 07:02:00,58.0,58.0,-100.00,NNW,328,2.0,3.0,99,0.00,,,0.08,0.000000,,2013-04-15 11:02:00,
2013-04-15 07:23:00,58.0,58.0,-100.00,NNW,328,2.0,3.0,99,0.00,,,0.08,0.000000,,2013-04-15 11:23:00,
2013-04-15 07:33:00,58.0,58.0,-100.00,NNW,328,2.0,3.0,99,0.00,,,0.08,0.000000,,2013-04-15 11:33:00,
2013-04-15 07:44:00,58.0,58.0,-100.00,NNW,328,2.0,3.0,99,0.00,,,0.08,0.000000,,2013-04-15 11:44:00,
2013-04-15 07:54:00,58.0,58.0,-100.00,NNW,328,2.0,3.0,99,0.00,,,0.08,0.000000,,2013-04-15 11:54:00,
2013-04-15 08:02:00,58.0,57.0,-100.00,WNW,296,1.0,5.0,98,0.01,,,0.09,18.000000,,2013-04-15 12:02:00,
2013-04-15 08:34:00,58.0,57.0,-100.00,WNW,296,1.0,5.0,98,0.01,,,0.09,18.000000,,2013-04-15 12:34:00,
2013-04-15 08:43:00,58.0,57.0,-100.00,WNW,296,1.0,5.0,98,0.01,,,0.09,18.000000,,2013-04-15 12:43:00,
2013-04-15 08:53:00,58.0,57.0,-100.00,WNW,296,1.0,5.0,98,0.01,,,0.09,18.000000,,2013-04-15 12:53:00,
2013-04-15 09:02:00,60.0,59.0,-100.00,North,11,2.0,4.0,97,0.00,,,0.09,114.000000,,2013-04-15 13:02:00,
2013-04-15 09:34:00,60.0,59.0,-100.00,North,11,2.0,4.0,97,0.00,,,0.09,114.000000,,2013-04-15 13:34:00,
2013-04-15 09:43:00,60.0,59.0,-100.00,North,11,2.0,4.0,97,0.00,,,0.09,114.000000,,2013-04-15 13:43:00,
2013-04-15 09:54:00,60.0,59.0,-100.00,North,11,2.0,4.0,97,0.00,,,0.09,114.000000,,2013-04-15 13:54:00,
2013-04-15 10:02:00,63.0,60.0,-100.00,WNW,287,4.0,7.0,91,0.00,,,0.09,323.000000,,2013-04-15 14:02:00,
2013-04-15 10:23:00,63.0,60.0,-100.00,WNW,287,4.0,7.0,91,0.00,,,0.09,323.000000,,2013-04-15 14:23:00,
2013-04-15 10:34:00,63.0,60.0,-100.00,WNW,287,4.0,7.0,91,0.00,,,0.09,323.000000,,2013-04-15 14:34:00,
2013-04-15 10:44:00,63.0,60.0,-100.00,WNW,287,4.0,7.0,91,0.00,,,0.09,323.000000,,2013-04-15 14:44:00,
2013-04-15 10:55:00,63.0,60.0,-100.00,WNW,287,4.0,7.0,91,0.00,,,0.09,323.000000,,2013-04-15 14:55:00,
2013-04-15 11:02:00,66.0,60.0,-100.00,NNE,14,3.0,7.0,80,0.00,,,0.09,316.000000,,2013-04-15 15:02:00,
2013-04-15 11:37:00,66.0,60.0,-100.00,NNE,14,3.0,7.0,80,0.00,,,0.09,316.000000,,2013-04-15 15:37:00,
2013-04-15 11:45:00,66.0,60.0,-100.00,NNE,14,3.0,7.0,80,0.00,,,0.09,316.000000,,2013-04-15 15:45:00,
2013-04-15 11:55:00,66.0,60.0,-100.00,NNE,14,3.0,7.0,80,0.00,,,0.09,316.000000,,2013-04-15 15:55:00,
2013-04-15 12:02:00,69.0,60.0,-100.00,SSE,148,3.0,5.0,72,0.00,,,0.09,330.000000,,2013-04-15 16:02:00,
2013-04-15 12:25:00,69.0,60.0,-100.00,SSE,148,3.0,5.0,72,0.00,,,0.09,330.000000,,2013-04-15 16:25:00,
2013-04-15 12:44:00,69.0,60.0,-100.00,SSE,148,3.0,5.0,72,0.00,,,0.09,330.000000,,2013-04-15 16:44:00,
2013-04-15 12:54:00,69.0,60.0,-100.00,SSE,148,3.0,5.0,72,0.00,,,0.09,330.000000,,2013-04-15 16:54:00,
2013-04-15 13:02:00,70.0,60.0,-100.00,East,97,5.0,10.0,71,0.00,,,0.09,525.000000,,2013-04-15 17:02:00,
2013-04-15 13:33:00,70.0,60.0,-100.00,East,97,5.0,10.0,71,0.00,,,0.09,525.000000,,2013-04-15 17:33:00,
2013-04-15 13:43:00,70.0,60.0,-100.00,East,97,5.0,10.0,71,0.00,,,0.09,525.000000,,2013-04-15 17:43:00,
2013-04-15 13:53:00,70.0,60.0,-100.00,East,97,5.0,10.0,71,0.00,,,0.09,525.000000,,2013-04-15 17:53:00,
2013-04-15 14:02:00,71.0,60.0,-100.00,ESE,117,6.0,12.0,68,0.00,,,0.09,670.000000,,2013-04-15 18:02:00,
2013-04-15 14:24:00,71.0,60.0,-100.00,ESE,117,6.0,12.0,68,0.00,,,0.09,670.000000,,2013-04-15 18:24:00,
2013-04-15 14:33:00,71.0,60.0,-100.00,ESE,117,6.0,12.0,68,0.00,,,0.09,670.000000,,2013-04-15 18:33:00,
2013-04-15 14:42:00,71.0,60.0,-100.00,ESE,117,6.0,12.0,68,0.00,,,0.09,670.000000,,2013-04-15 18:42:00,
2013-04-15 14:52:00,71.0,60.0,-100.00,ESE,117,6.0,12.0,68,0.00,,,0.09,670.000000,,2013-04-15 18:52:00,
2013-04-15 15:02:00,72.0,59.0,-100.00,ESE,110,5.0,11.0,64,0.00,,,0.09,417.000000,,2013-04-15 19:02:00,
2013-04-15 15:22:00,72.0,59.0,-100.00,ESE,110,5.0,11.0,64,0.00,,,0.09,417.000000,,2013-04-15 19:22:00,
2013-04-15 15:39:00,72.0,59.0,-100.00,ESE,110,5.0,11.0,64,0.00,,,0.09,417.000000,,2013-04-15 19:39:00,
2013-04-15 15:59:00,72.0,59.0,-100.00,ESE,110,5.0,11.0,64,0.00,,,0.09,417.000000,,2013-04-15 19:59:00,
2013-04-15 16:02:00,73.0,59.0,-100.00,SSE,152,9.0,14.0,62,0.00,,,0.06,684.000000,,2013-04-15 20:02:00,
2013-04-15 16:32:00,73.0,59.0,-100.00,SSE,152,9.0,14.0,62,0.00,,,0.06,684.000000,,2013-04-15 20:32:00,
2013-04-15 16:42:00,73.0,59.0,-100.00,SSE,152,9.0,14.0,62,0.00,,,0.06,684.000000,,2013-04-15 20:42:00,
2013-04-15 16:52:00,73.0,59.0,-100.00,SSE,152,9.0,14.0,62,0.00,,,0.06,684.000000,,2013-04-15 20:52:00,
2013-04-15 17:02:00,74.0,59.0,-100.00,ESE,106,5.0,13.0,59,0.00,,,0.05,363.000000,,2013-04-15 21:02:00,
2013-04-15 17:33:00,74.0,59.0,-100.00,ESE,106,5.0,13.0,59,0.00,,,0.05,363.000000,,2013-04-15 21:33:00,
2013-04-15 17:43:00,74.0,59.0,-100.00,ESE,106,5.0,13.0,59,0.00,,,0.05,363.000000,,2013-04-15 21:43:00,
2013-04-15 17:53:00,74.0,59.0,-100.00,ESE,106,5.0,13.0,59,0.00,,,0.05,363.000000,,2013-04-15 21:53:00,
2013-04-15 18:02:00,73.0,57.0,-100.00,SE,141,7.0,11.0,58,0.00,,,0.04,335.000000,,2013-04-15 22:02:00,
2013-04-15 18:33:00,73.0,57.0,-100.00,SE,141,7.0,11.0,58,0.00,,,0.04,335.000000,,2013-04-15 22:33:00,
2013-04-15 18:42:00,73.0,57.0,-100.00,SE,141,7.0,11.0,58,0.00,,,0.04,335.000000,,2013-04-15 22:42:00,
2013-04-15 18:52:00,73.0,57.0,-100.00,SE,141,7.0,11.0,58,0.00,,,0.04,335.000000,,2013-04-15 22:52:00,
2013-04-15 19:02:00,73.0,56.0,-100.00,East,84,5.0,11.0,56,0.00,,,0.02,262.000000,,2013-04-15 23:02:00,
2013-04-15 19:32:00,73.0,56.0,-100.00,East,84,5.0,11.0,56,0.00,,,0.02,262.000000,,2013-04-15 23:32:00,
2013-04-15 19:42:00,73.0,56.0,-100.00,East,84,5.0,11.0,56,0.00,,,0.02,262.000000,,2013-04-15 23:42:00,
2013-04-15 19:52:00,73.0,56.0,-100.00,East,84,5.0,11.0,56,0.00,,,0.02,262.000000,,2013-04-15 23:52:00,
2013-04-15 20:02:00,68.0,60.0,-100.00,ESE,104,2.0,7.0,75,0.00,,,0.01,61.000000,,2013-04-16 00:02:00,
2013-04-15 20:22:00,68.0,60.0,-100.00,ESE,104,2.0,7.0,75,0.00,,,0.01,61.000000,,2013-04-16 00:22:00,
2013-04-15 20:32:00,68.0,60.0,-100.00,ESE,104,2.0,7.0,75,0.00,,,0.01,61.000000,,2013-04-16 00:32:00,
2013-04-15 20:42:00,68.0,60.0,-100.00,ESE,104,2.0,7.0,75,0.00,,,0.01,61.000000,,2013-04-16 00:42:00,
2013-04-15 20:52:00,68.0,60.0,-100.00,ESE,104,2.0,7.0,75,0.00,,,0.01,61.000000,,2013-04-16 00:52:00,
2013-04-15 21:02:00,63.0,59.0,-100.00,NNW,327,1.0,3.0,87,0.00,,,0.01,0.000000,,2013-04-16 01:02:00,
2013-04-15 21:22:00,63.0,59.0,-100.00,NNW,327,1.0,3.0,87,0.00,,,0.01,0.000000,,2013-04-16 01:22:00,
2013-04-15 21:32:00,63.0,59.0,-100.00,NNW,327,1.0,3.0,87,0.00,,,0.01,0.000000,,2013-04-16 01:32:00,
2013-04-15 21:42:00,63.0,59.0,-100.00,NNW,327,1.0,3.0,87,0.00,,,0.01,0.000000,,2013-04-16 01:42:00,
2013-04-15 21:52:00,63.0,59.0,-100.00,NNW,327,1.0,3.0,87,0.00,,,0.01,0.000000,,2013-04-16 01:52:00,
2013-04-15 22:02:00,60.0,58.0,-100.00,NE,43,0.0,1.0,94,0.00,,,0.01,0.000000,,2013-04-16 02:02:00,
2013-04-15 22:32:00,60.0,58.0,-100.00,NE,43,0.0,1.0,94,0.00,,,0.01,0.000000,,2013-04-16 02:32:00,
2013-04-15 22:42:00,60.0,58.0,-100.00,NE,43,0.0,1.0,94,0.00,,,0.01,0.000000,,2013-04-16 02:42:00,
2013-04-15 22:52:00,60.0,58.0,-100.00,NE,43,0.0,1.0,94,0.00,,,0.01,0.000000,,2013-04-16 02:52:00,
2013-04-15 23:02:00,59.0,58.0,-100.00,NNE,19,0.0,0.0,95,0.00,,,0.01,0.000000,,2013-04-16 03:02:00,
2013-04-15 23:33:00,59.0,58.0,-100.00,NNE,19,0.0,0.0,95,0.00,,,0.01,0.000000,,2013-04-16 03:33:00,
2013-04-15 23:43:00,59.0,58.0,-100.00,NNE,19,0.0,0.0,95,0.00,,,0.01,0.000000,,2013-04-16 03:43:00,
2013-04-15 23:53:00,59.0,58.0,-100.00,NNE,19,0.0,0.0,95,0.00,,,0.01,0.000000,,2013-04-16 03:53:00,